sensor_id;sensor_type;location;lat;lon;timestamp;P1;durP1;ratioP1;P2;durP2;ratioP2
33268;SDS011;19640;50.944;5.260;2023-08-21T00:00:04;2.92;;;1.15;;
33268;SDS011;19640;50.944;5.260;2023-08-21T00:02:33;3.88;;;1.02;;
33268;SDS011;19640;50.944;5.260;2023-08-21T00:04:59;2.53;;;1.10;;
33268;SDS011;19640;50.944;5.260;2023-08-21T00:07:24;4.57;;;1.80;;
33268;SDS011;19640;50.944;5.260;2023-08-21T00:09:50;1.50;;;1.00;;
33268;SDS011;19640;50.944;5.260;2023-08-21T00:12:16;5.05;;;1.30;;
33268;SDS011;19640;50.944;5.260;2023-08-21T00:14:42;4.25;;;1.20;;
33268;SDS011;19640;50.944;5.260;2023-08-21T00:17:07;4.60;;;1.20;;
33268;SDS011;19640;50.944;5.260;2023-08-21T00:19:33;4.20;;;1.30;;
33268;SDS011;19640;50.944;5.260;2023-08-21T00:21:59;2.83;;;1.27;;
33268;SDS011;19640;50.944;5.260;2023-08-21T00:24:25;2.30;;;1.20;;
33268;SDS011;19640;50.944;5.260;2023-08-21T00:26:51;3.85;;;1.20;;
33268;SDS011;19640;50.944;5.260;2023-08-21T00:29:17;3.75;;;1.70;;
33268;SDS011;19640;50.944;5.260;2023-08-21T00:31:42;4.82;;;1.45;;
33268;SDS011;19640;50.944;5.260;2023-08-21T00:34:09;5.60;;;1.55;;
33268;SDS011;19640;50.944;5.260;2023-08-21T00:36:35;2.80;;;1.17;;
33268;SDS011;19640;50.944;5.260;2023-08-21T00:39:00;4.38;;;1.20;;
33268;SDS011;19640;50.944;5.260;2023-08-21T00:41:26;3.50;;;1.20;;
33268;SDS011;19640;50.944;5.260;2023-08-21T00:43:52;2.47;;;1.05;;
33268;SDS011;19640;50.944;5.260;2023-08-21T00:46:17;2.95;;;1.50;;
33268;SDS011;19640;50.944;5.260;2023-08-21T00:48:43;3.80;;;1.00;;
33268;SDS011;19640;50.944;5.260;2023-08-21T00:51:09;3.30;;;1.23;;
33268;SDS011;19640;50.944;5.260;2023-08-21T00:53:37;4.32;;;1.40;;
33268;SDS011;19640;50.944;5.260;2023-08-21T00:56:03;5.13;;;1.17;;
33268;SDS011;19640;50.944;5.260;2023-08-21T00:58:29;3.58;;;0.95;;
33268;SDS011;19640;50.944;5.260;2023-08-21T01:00:54;7.35;;;1.30;;
33268;SDS011;19640;50.944;5.260;2023-08-21T01:03:20;4.47;;;1.98;;
33268;SDS011;19640;50.944;5.260;2023-08-21T01:05:46;6.00;;;1.30;;
33268;SDS011;19640;50.944;5.260;2023-08-21T01:11:18;4.25;;;1.20;;
33268;SDS011;19640;50.944;5.260;2023-08-21T01:16:30;3.50;;;1.15;;
33268;SDS011;19640;50.944;5.260;2023-08-21T01:18:59;2.92;;;1.25;;
33268;SDS011;19640;50.944;5.260;2023-08-21T01:21:28;5.83;;;1.17;;
33268;SDS011;19640;50.944;5.260;2023-08-21T01:23:53;3.45;;;1.00;;
33268;SDS011;19640;50.944;5.260;2023-08-21T01:26:19;4.05;;;1.73;;
33268;SDS011;19640;50.944;5.260;2023-08-21T01:28:45;2.90;;;0.95;;
33268;SDS011;19640;50.944;5.260;2023-08-21T01:33:44;4.55;;;1.33;;
33268;SDS011;19640;50.944;5.260;2023-08-21T01:36:12;6.03;;;1.20;;
33268;SDS011;19640;50.944;5.260;2023-08-21T01:38:39;6.85;;;1.30;;
33268;SDS011;19640;50.944;5.260;2023-08-21T01:41:06;2.55;;;1.00;;
33268;SDS011;19640;50.944;5.260;2023-08-21T01:43:33;5.80;;;1.65;;
33268;SDS011;19640;50.944;5.260;2023-08-21T01:45:59;2.85;;;1.17;;
33268;SDS011;19640;50.944;5.260;2023-08-21T01:48:26;3.30;;;1.10;;
33268;SDS011;19640;50.944;5.260;2023-08-21T01:50:54;2.53;;;1.30;;
33268;SDS011;19640;50.944;5.260;2023-08-21T01:53:19;5.22;;;1.30;;
33268;SDS011;19640;50.944;5.260;2023-08-21T01:55:45;7.10;;;1.20;;
33268;SDS011;19640;50.944;5.260;2023-08-21T01:58:11;5.10;;;1.30;;
33268;SDS011;19640;50.944;5.260;2023-08-21T02:00:36;3.17;;;1.10;;
33268;SDS011;19640;50.944;5.260;2023-08-21T02:03:02;4.70;;;1.98;;
33268;SDS011;19640;50.944;5.260;2023-08-21T02:05:28;4.95;;;1.42;;
33268;SDS011;19640;50.944;5.260;2023-08-21T02:07:53;3.53;;;1.02;;
33268;SDS011;19640;50.944;5.260;2023-08-21T02:10:19;3.25;;;1.40;;
33268;SDS011;19640;50.944;5.260;2023-08-21T02:12:45;4.32;;;1.48;;
33268;SDS011;19640;50.944;5.260;2023-08-21T02:15:10;4.18;;;1.30;;
33268;SDS011;19640;50.944;5.260;2023-08-21T02:17:36;4.22;;;1.20;;
33268;SDS011;19640;50.944;5.260;2023-08-21T02:20:02;5.75;;;1.70;;
33268;SDS011;19640;50.944;5.260;2023-08-21T02:22:27;8.15;;;1.60;;
33268;SDS011;19640;50.944;5.260;2023-08-21T02:24:53;5.03;;;1.92;;
33268;SDS011;19640;50.944;5.260;2023-08-21T02:27:19;4.57;;;1.50;;
33268;SDS011;19640;50.944;5.260;2023-08-21T02:29:45;3.33;;;1.45;;
33268;SDS011;19640;50.944;5.260;2023-08-21T02:32:10;5.72;;;1.38;;
33268;SDS011;19640;50.944;5.260;2023-08-21T02:34:36;5.07;;;1.30;;
33268;SDS011;19640;50.944;5.260;2023-08-21T02:37:01;6.72;;;1.52;;
33268;SDS011;19640;50.944;5.260;2023-08-21T02:39:28;2.72;;;1.50;;
33268;SDS011;19640;50.944;5.260;2023-08-21T02:41:53;4.85;;;1.30;;
33268;SDS011;19640;50.944;5.260;2023-08-21T02:44:19;3.45;;;1.40;;
33268;SDS011;19640;50.944;5.260;2023-08-21T02:46:45;5.03;;;1.20;;
33268;SDS011;19640;50.944;5.260;2023-08-21T02:49:10;5.60;;;1.52;;
33268;SDS011;19640;50.944;5.260;2023-08-21T02:51:36;4.15;;;1.52;;
33268;SDS011;19640;50.944;5.260;2023-08-21T02:54:02;7.78;;;1.60;;
33268;SDS011;19640;50.944;5.260;2023-08-21T02:56:28;4.72;;;1.75;;
33268;SDS011;19640;50.944;5.260;2023-08-21T02:58:54;3.47;;;1.10;;
33268;SDS011;19640;50.944;5.260;2023-08-21T03:01:19;5.60;;;1.63;;
33268;SDS011;19640;50.944;5.260;2023-08-21T03:03:45;5.65;;;1.30;;
33268;SDS011;19640;50.944;5.260;2023-08-21T03:06:11;3.25;;;1.35;;
33268;SDS011;19640;50.944;5.260;2023-08-21T03:08:36;5.18;;;1.52;;
33268;SDS011;19640;50.944;5.260;2023-08-21T03:11:02;3.42;;;1.35;;
33268;SDS011;19640;50.944;5.260;2023-08-21T03:13:28;4.97;;;1.33;;
33268;SDS011;19640;50.944;5.260;2023-08-21T03:15:54;6.50;;;1.30;;
33268;SDS011;19640;50.944;5.260;2023-08-21T03:18:19;4.38;;;1.50;;
33268;SDS011;19640;50.944;5.260;2023-08-21T03:20:45;4.07;;;1.90;;
33268;SDS011;19640;50.944;5.260;2023-08-21T03:23:12;4.30;;;1.73;;
33268;SDS011;19640;50.944;5.260;2023-08-21T03:25:38;4.78;;;1.70;;
33268;SDS011;19640;50.944;5.260;2023-08-21T03:28:03;2.22;;;1.40;;
33268;SDS011;19640;50.944;5.260;2023-08-21T03:30:29;4.80;;;1.40;;
33268;SDS011;19640;50.944;5.260;2023-08-21T03:32:55;3.83;;;1.40;;
33268;SDS011;19640;50.944;5.260;2023-08-21T03:35:20;3.22;;;1.60;;
33268;SDS011;19640;50.944;5.260;2023-08-21T03:37:46;4.65;;;1.60;;
33268;SDS011;19640;50.944;5.260;2023-08-21T03:40:12;3.72;;;1.52;;
33268;SDS011;19640;50.944;5.260;2023-08-21T03:42:38;4.03;;;1.48;;
33268;SDS011;19640;50.944;5.260;2023-08-21T03:45:03;2.70;;;1.60;;
33268;SDS011;19640;50.944;5.260;2023-08-21T03:47:30;5.07;;;1.92;;
33268;SDS011;19640;50.944;5.260;2023-08-21T03:49:56;4.93;;;1.40;;
33268;SDS011;19640;50.944;5.260;2023-08-21T03:52:21;5.35;;;1.52;;
33268;SDS011;19640;50.944;5.260;2023-08-21T03:54:47;3.28;;;1.90;;
33268;SDS011;19640;50.944;5.260;2023-08-21T03:57:13;5.13;;;1.50;;
33268;SDS011;19640;50.944;5.260;2023-08-21T03:59:38;3.50;;;1.67;;
33268;SDS011;19640;50.944;5.260;2023-08-21T04:02:04;8.07;;;1.55;;
33268;SDS011;19640;50.944;5.260;2023-08-21T04:04:30;3.17;;;1.52;;
33268;SDS011;19640;50.944;5.260;2023-08-21T04:06:55;5.95;;;1.50;;
33268;SDS011;19640;50.944;5.260;2023-08-21T04:09:21;2.95;;;1.30;;
33268;SDS011;19640;50.944;5.260;2023-08-21T04:11:47;5.07;;;1.63;;
33268;SDS011;19640;50.944;5.260;2023-08-21T04:14:12;3.80;;;1.40;;
33268;SDS011;19640;50.944;5.260;2023-08-21T04:16:38;1.90;;;1.42;;
33268;SDS011;19640;50.944;5.260;2023-08-21T04:19:05;3.40;;;1.48;;
33268;SDS011;19640;50.944;5.260;2023-08-21T04:21:30;4.05;;;1.65;;
33268;SDS011;19640;50.944;5.260;2023-08-21T04:23:56;4.28;;;1.67;;
33268;SDS011;19640;50.944;5.260;2023-08-21T04:26:22;11.75;;;1.50;;
33268;SDS011;19640;50.944;5.260;2023-08-21T04:28:47;4.75;;;1.98;;
33268;SDS011;19640;50.944;5.260;2023-08-21T04:31:13;3.20;;;1.50;;
33268;SDS011;19640;50.944;5.260;2023-08-21T04:33:39;4.38;;;1.60;;
33268;SDS011;19640;50.944;5.260;2023-08-21T04:36:05;4.63;;;1.90;;
33268;SDS011;19640;50.944;5.260;2023-08-21T04:38:30;6.10;;;2.15;;
33268;SDS011;19640;50.944;5.260;2023-08-21T04:41:00;5.60;;;2.13;;
33268;SDS011;19640;50.944;5.260;2023-08-21T04:43:34;5.10;;;2.15;;
33268;SDS011;19640;50.944;5.260;2023-08-21T04:45:59;5.47;;;2.00;;
33268;SDS011;19640;50.944;5.260;2023-08-21T04:48:25;3.40;;;1.60;;
33268;SDS011;19640;50.944;5.260;2023-08-21T04:50:51;6.20;;;1.77;;
33268;SDS011;19640;50.944;5.260;2023-08-21T04:53:17;4.28;;;1.60;;
33268;SDS011;19640;50.944;5.260;2023-08-21T04:55:42;4.55;;;1.95;;
33268;SDS011;19640;50.944;5.260;2023-08-21T04:58:09;3.17;;;1.90;;
33268;SDS011;19640;50.944;5.260;2023-08-21T05:00:35;4.18;;;1.77;;
33268;SDS011;19640;50.944;5.260;2023-08-21T05:03:01;3.13;;;1.58;;
33268;SDS011;19640;50.944;5.260;2023-08-21T05:05:27;5.32;;;1.73;;
33268;SDS011;19640;50.944;5.260;2023-08-21T05:07:53;3.95;;;1.92;;
33268;SDS011;19640;50.944;5.260;2023-08-21T05:10:20;7.32;;;2.00;;
33268;SDS011;19640;50.944;5.260;2023-08-21T05:12:46;4.85;;;1.92;;
33268;SDS011;19640;50.944;5.260;2023-08-21T05:15:12;2.03;;;1.63;;
33268;SDS011;19640;50.944;5.260;2023-08-21T05:17:37;8.85;;;2.08;;
33268;SDS011;19640;50.944;5.260;2023-08-21T05:20:03;6.82;;;2.28;;
33268;SDS011;19640;50.944;5.260;2023-08-21T05:22:29;5.20;;;2.15;;
33268;SDS011;19640;50.944;5.260;2023-08-21T05:24:55;3.92;;;1.90;;
33268;SDS011;19640;50.944;5.260;2023-08-21T05:27:20;5.13;;;2.20;;
33268;SDS011;19640;50.944;5.260;2023-08-21T05:29:46;3.63;;;1.85;;
33268;SDS011;19640;50.944;5.260;2023-08-21T05:32:14;6.57;;;2.35;;
33268;SDS011;19640;50.944;5.260;2023-08-21T05:34:40;5.32;;;2.28;;
33268;SDS011;19640;50.944;5.260;2023-08-21T05:37:05;5.78;;;2.03;;
33268;SDS011;19640;50.944;5.260;2023-08-21T05:39:31;6.25;;;2.10;;
33268;SDS011;19640;50.944;5.260;2023-08-21T05:41:58;3.78;;;1.73;;
33268;SDS011;19640;50.944;5.260;2023-08-21T05:44:24;7.20;;;2.38;;
33268;SDS011;19640;50.944;5.260;2023-08-21T05:46:50;3.95;;;2.10;;
33268;SDS011;19640;50.944;5.260;2023-08-21T05:49:15;3.88;;;2.33;;
33268;SDS011;19640;50.944;5.260;2023-08-21T05:51:41;6.03;;;2.72;;
33268;SDS011;19640;50.944;5.260;2023-08-21T05:54:07;5.93;;;2.70;;
33268;SDS011;19640;50.944;5.260;2023-08-21T05:56:32;13.10;;;2.85;;
33268;SDS011;19640;50.944;5.260;2023-08-21T05:58:58;2.63;;;1.90;;
33268;SDS011;19640;50.944;5.260;2023-08-21T06:01:25;4.75;;;2.30;;
33268;SDS011;19640;50.944;5.260;2023-08-21T06:03:50;6.78;;;2.25;;
33268;SDS011;19640;50.944;5.260;2023-08-21T06:06:16;8.02;;;2.83;;
33268;SDS011;19640;50.944;5.260;2023-08-21T06:08:42;4.90;;;2.78;;
33268;SDS011;19640;50.944;5.260;2023-08-21T06:11:07;8.93;;;3.25;;
33268;SDS011;19640;50.944;5.260;2023-08-21T06:13:34;8.63;;;3.22;;
33268;SDS011;19640;50.944;5.260;2023-08-21T06:15:59;5.47;;;2.45;;
33268;SDS011;19640;50.944;5.260;2023-08-21T06:18:25;5.47;;;3.25;;
33268;SDS011;19640;50.944;5.260;2023-08-21T06:20:51;9.13;;;3.30;;
33268;SDS011;19640;50.944;5.260;2023-08-21T06:23:18;10.13;;;3.72;;
33268;SDS011;19640;50.944;5.260;2023-08-21T06:25:47;12.30;;;3.95;;
33268;SDS011;19640;50.944;5.260;2023-08-21T06:28:13;6.05;;;3.42;;
33268;SDS011;19640;50.944;5.260;2023-08-21T06:30:39;6.45;;;2.75;;
33268;SDS011;19640;50.944;5.260;2023-08-21T06:33:04;8.65;;;3.47;;
33268;SDS011;19640;50.944;5.260;2023-08-21T06:35:30;6.07;;;3.60;;
33268;SDS011;19640;50.944;5.260;2023-08-21T06:37:55;7.95;;;3.58;;
33268;SDS011;19640;50.944;5.260;2023-08-21T06:40:21;5.78;;;3.90;;
33268;SDS011;19640;50.944;5.260;2023-08-21T06:42:47;7.55;;;3.88;;
33268;SDS011;19640;50.944;5.260;2023-08-21T06:45:16;8.27;;;3.40;;
33268;SDS011;19640;50.944;5.260;2023-08-21T06:47:42;7.55;;;3.92;;
33268;SDS011;19640;50.944;5.260;2023-08-21T06:50:08;5.47;;;3.95;;
33268;SDS011;19640;50.944;5.260;2023-08-21T06:52:34;9.38;;;4.03;;
33268;SDS011;19640;50.944;5.260;2023-08-21T06:54:59;9.15;;;4.03;;
33268;SDS011;19640;50.944;5.260;2023-08-21T06:57:25;5.97;;;3.90;;
33268;SDS011;19640;50.944;5.260;2023-08-21T06:59:51;5.25;;;3.20;;
33268;SDS011;19640;50.944;5.260;2023-08-21T07:02:16;7.20;;;3.63;;
33268;SDS011;19640;50.944;5.260;2023-08-21T07:04:42;6.60;;;3.95;;
33268;SDS011;19640;50.944;5.260;2023-08-21T07:07:08;8.10;;;5.05;;
33268;SDS011;19640;50.944;5.260;2023-08-21T07:09:34;7.63;;;3.75;;
33268;SDS011;19640;50.944;5.260;2023-08-21T07:11:59;12.90;;;3.63;;
33268;SDS011;19640;50.944;5.260;2023-08-21T07:14:26;7.40;;;3.00;;
33268;SDS011;19640;50.944;5.260;2023-08-21T07:16:52;7.68;;;2.88;;
33268;SDS011;19640;50.944;5.260;2023-08-21T07:19:18;5.18;;;3.00;;
33268;SDS011;19640;50.944;5.260;2023-08-21T07:21:43;3.95;;;2.85;;
33268;SDS011;19640;50.944;5.260;2023-08-21T07:24:09;7.43;;;3.00;;
33268;SDS011;19640;50.944;5.260;2023-08-21T07:26:35;7.10;;;3.30;;
33268;SDS011;19640;50.944;5.260;2023-08-21T07:29:01;4.20;;;2.25;;
33268;SDS011;19640;50.944;5.260;2023-08-21T07:31:26;5.63;;;2.55;;
33268;SDS011;19640;50.944;5.260;2023-08-21T07:33:52;5.97;;;2.53;;
33268;SDS011;19640;50.944;5.260;2023-08-21T07:36:18;8.70;;;2.53;;
33268;SDS011;19640;50.944;5.260;2023-08-21T07:38:44;6.53;;;2.03;;
33268;SDS011;19640;50.944;5.260;2023-08-21T07:41:11;8.45;;;3.05;;
33268;SDS011;19640;50.944;5.260;2023-08-21T07:43:39;4.82;;;2.33;;
33268;SDS011;19640;50.944;5.260;2023-08-21T07:46:06;9.38;;;2.33;;
33268;SDS011;19640;50.944;5.260;2023-08-21T07:48:35;9.15;;;2.28;;
33268;SDS011;19640;50.944;5.260;2023-08-21T07:51:01;5.93;;;1.80;;
33268;SDS011;19640;50.944;5.260;2023-08-21T07:53:27;10.13;;;2.63;;
33268;SDS011;19640;50.944;5.260;2023-08-21T07:55:53;5.82;;;2.50;;
33268;SDS011;19640;50.944;5.260;2023-08-21T07:58:18;5.57;;;2.95;;
33268;SDS011;19640;50.944;5.260;2023-08-21T08:00:45;4.78;;;1.98;;
33268;SDS011;19640;50.944;5.260;2023-08-21T08:03:10;4.30;;;1.65;;
33268;SDS011;19640;50.944;5.260;2023-08-21T08:05:39;7.82;;;1.83;;
33268;SDS011;19640;50.944;5.260;2023-08-21T08:08:05;5.32;;;1.30;;
33268;SDS011;19640;50.944;5.260;2023-08-21T08:10:31;5.50;;;1.40;;
33268;SDS011;19640;50.944;5.260;2023-08-21T08:12:56;4.43;;;1.63;;
33268;SDS011;19640;50.944;5.260;2023-08-21T08:15:22;5.00;;;1.30;;
33268;SDS011;19640;50.944;5.260;2023-08-21T08:17:48;4.85;;;1.45;;
33268;SDS011;19640;50.944;5.260;2023-08-21T08:20:18;6.10;;;1.60;;
33268;SDS011;19640;50.944;5.260;2023-08-21T08:22:44;4.90;;;1.25;;
33268;SDS011;19640;50.944;5.260;2023-08-21T08:25:10;4.07;;;1.13;;
33268;SDS011;19640;50.944;5.260;2023-08-21T08:27:36;6.13;;;1.50;;
33268;SDS011;19640;50.944;5.260;2023-08-21T08:30:02;12.77;;;1.40;;
33268;SDS011;19640;50.944;5.260;2023-08-21T08:32:28;10.82;;;1.98;;
33268;SDS011;19640;50.944;5.260;2023-08-21T08:34:54;5.72;;;1.42;;
33268;SDS011;19640;50.944;5.260;2023-08-21T08:37:20;3.83;;;1.20;;
33268;SDS011;19640;50.944;5.260;2023-08-21T08:39:46;6.97;;;1.27;;
33268;SDS011;19640;50.944;5.260;2023-08-21T08:42:12;4.90;;;1.08;;
33268;SDS011;19640;50.944;5.260;2023-08-21T08:44:39;5.78;;;1.10;;
33268;SDS011;19640;50.944;5.260;2023-08-21T08:47:06;5.28;;;1.08;;
33268;SDS011;19640;50.944;5.260;2023-08-21T08:49:35;6.40;;;1.20;;
33268;SDS011;19640;50.944;5.260;2023-08-21T08:52:02;3.47;;;0.98;;
33268;SDS011;19640;50.944;5.260;2023-08-21T08:54:28;6.88;;;1.00;;
33268;SDS011;19640;50.944;5.260;2023-08-21T08:56:55;6.57;;;1.17;;
33268;SDS011;19640;50.944;5.260;2023-08-21T08:59:22;4.13;;;1.20;;
33268;SDS011;19640;50.944;5.260;2023-08-21T09:01:47;4.13;;;0.90;;
33268;SDS011;19640;50.944;5.260;2023-08-21T09:04:14;4.18;;;1.08;;
33268;SDS011;19640;50.944;5.260;2023-08-21T09:06:40;3.58;;;1.00;;
33268;SDS011;19640;50.944;5.260;2023-08-21T09:09:06;4.28;;;1.35;;
33268;SDS011;19640;50.944;5.260;2023-08-21T09:11:33;5.90;;;1.35;;
33268;SDS011;19640;50.944;5.260;2023-08-21T09:13:59;8.48;;;1.15;;
33268;SDS011;19640;50.944;5.260;2023-08-21T09:16:25;5.60;;;1.23;;
33268;SDS011;19640;50.944;5.260;2023-08-21T09:18:55;6.45;;;1.27;;
33268;SDS011;19640;50.944;5.260;2023-08-21T09:21:24;4.53;;;1.15;;
33268;SDS011;19640;50.944;5.260;2023-08-21T09:23:59;3.63;;;1.10;;
33268;SDS011;19640;50.944;5.260;2023-08-21T09:26:29;4.22;;;1.00;;
33268;SDS011;19640;50.944;5.260;2023-08-21T09:28:57;3.95;;;1.17;;
33268;SDS011;19640;50.944;5.260;2023-08-21T09:31:32;5.50;;;1.30;;
33268;SDS011;19640;50.944;5.260;2023-08-21T09:33:58;3.90;;;0.90;;
33268;SDS011;19640;50.944;5.260;2023-08-21T09:36:26;6.38;;;1.40;;
33268;SDS011;19640;50.944;5.260;2023-08-21T09:38:52;4.65;;;0.98;;
33268;SDS011;19640;50.944;5.260;2023-08-21T09:41:21;4.57;;;1.20;;
33268;SDS011;19640;50.944;5.260;2023-08-21T09:43:48;3.50;;;1.00;;
33268;SDS011;19640;50.944;5.260;2023-08-21T09:46:15;3.65;;;0.88;;
33268;SDS011;19640;50.944;5.260;2023-08-21T09:48:42;3.58;;;0.90;;
33268;SDS011;19640;50.944;5.260;2023-08-21T09:51:09;4.82;;;0.82;;
33268;SDS011;19640;50.944;5.260;2023-08-21T09:53:36;7.22;;;1.20;;
33268;SDS011;19640;50.944;5.260;2023-08-21T09:56:02;4.07;;;0.85;;
33268;SDS011;19640;50.944;5.260;2023-08-21T09:58:29;5.28;;;0.90;;
33268;SDS011;19640;50.944;5.260;2023-08-21T10:00:58;3.85;;;1.02;;
33268;SDS011;19640;50.944;5.260;2023-08-21T10:03:25;2.38;;;0.80;;
33268;SDS011;19640;50.944;5.260;2023-08-21T10:05:52;4.15;;;0.88;;
33268;SDS011;19640;50.944;5.260;2023-08-21T10:08:24;6.55;;;1.10;;
33268;SDS011;19640;50.944;5.260;2023-08-21T10:10:51;2.20;;;0.90;;
33268;SDS011;19640;50.944;5.260;2023-08-21T10:13:17;5.75;;;1.00;;
33268;SDS011;19640;50.944;5.260;2023-08-21T10:15:43;5.78;;;1.05;;
33268;SDS011;19640;50.944;5.260;2023-08-21T10:18:30;10.57;;;2.22;;
33268;SDS011;19640;50.944;5.260;2023-08-21T10:21:13;3.58;;;1.20;;
33268;SDS011;19640;50.944;5.260;2023-08-21T10:23:50;5.50;;;1.08;;
33268;SDS011;19640;50.944;5.260;2023-08-21T10:26:19;3.85;;;1.00;;
33268;SDS011;19640;50.944;5.260;2023-08-21T10:34:13;5.18;;;0.90;;
33268;SDS011;19640;50.944;5.260;2023-08-21T10:39:25;6.43;;;1.00;;
33268;SDS011;19640;50.944;5.260;2023-08-21T10:47:17;1.05;;;0.65;;
33268;SDS011;19640;50.944;5.260;2023-08-21T10:49:49;3.05;;;1.10;;
33268;SDS011;19640;50.944;5.260;2023-08-21T10:55:12;4.07;;;0.80;;
33268;SDS011;19640;50.944;5.260;2023-08-21T10:57:41;8.05;;;1.88;;
33268;SDS011;19640;50.944;5.260;2023-08-21T11:00:07;3.42;;;1.13;;
33268;SDS011;19640;50.944;5.260;2023-08-21T11:02:36;2.78;;;1.02;;
33268;SDS011;19640;50.944;5.260;2023-08-21T11:05:06;2.67;;;0.60;;
33268;SDS011;19640;50.944;5.260;2023-08-21T11:07:43;3.92;;;1.00;;
33268;SDS011;19640;50.944;5.260;2023-08-21T11:10:11;2.28;;;0.82;;
33268;SDS011;19640;50.944;5.260;2023-08-21T11:15:18;3.00;;;1.00;;
33268;SDS011;19640;50.944;5.260;2023-08-21T11:17:54;2.28;;;1.02;;
33268;SDS011;19640;50.944;5.260;2023-08-21T11:20:22;3.35;;;1.30;;
33268;SDS011;19640;50.944;5.260;2023-08-21T11:22:56;4.97;;;0.97;;
33268;SDS011;19640;50.944;5.260;2023-08-21T11:25:23;4.60;;;1.58;;
33268;SDS011;19640;50.944;5.260;2023-08-21T11:27:48;6.50;;;1.13;;
33268;SDS011;19640;50.944;5.260;2023-08-21T11:30:14;3.72;;;1.42;;
33268;SDS011;19640;50.944;5.260;2023-08-21T11:32:41;3.90;;;1.20;;
33268;SDS011;19640;50.944;5.260;2023-08-21T11:35:06;4.88;;;0.80;;
33268;SDS011;19640;50.944;5.260;2023-08-21T11:37:33;3.90;;;0.95;;
33268;SDS011;19640;50.944;5.260;2023-08-21T11:39:58;7.57;;;0.82;;
33268;SDS011;19640;50.944;5.260;2023-08-21T11:42:31;2.85;;;0.82;;
33268;SDS011;19640;50.944;5.260;2023-08-21T11:44:58;4.88;;;1.45;;
33268;SDS011;19640;50.944;5.260;2023-08-21T11:47:29;3.80;;;0.75;;
33268;SDS011;19640;50.944;5.260;2023-08-21T11:50:05;5.43;;;0.80;;
33268;SDS011;19640;50.944;5.260;2023-08-21T11:52:33;2.20;;;0.90;;
33268;SDS011;19640;50.944;5.260;2023-08-21T11:55:06;3.20;;;0.75;;
33268;SDS011;19640;50.944;5.260;2023-08-21T11:57:48;3.65;;;0.90;;
33268;SDS011;19640;50.944;5.260;2023-08-21T12:00:14;5.20;;;0.70;;
33268;SDS011;19640;50.944;5.260;2023-08-21T12:02:53;1.85;;;0.70;;
33268;SDS011;19640;50.944;5.260;2023-08-21T12:05:22;3.97;;;0.80;;
33268;SDS011;19640;50.944;5.260;2023-08-21T12:07:48;1.25;;;0.90;;
33268;SDS011;19640;50.944;5.260;2023-08-21T12:10:14;3.70;;;1.13;;
33268;SDS011;19640;50.944;5.260;2023-08-21T12:12:50;3.67;;;0.90;;
33268;SDS011;19640;50.944;5.260;2023-08-21T12:15:16;4.47;;;0.90;;
33268;SDS011;19640;50.944;5.260;2023-08-21T12:17:42;3.40;;;0.93;;
33268;SDS011;19640;50.944;5.260;2023-08-21T12:20:08;2.63;;;0.80;;
33268;SDS011;19640;50.944;5.260;2023-08-21T12:22:37;3.13;;;0.82;;
33268;SDS011;19640;50.944;5.260;2023-08-21T12:25:04;2.55;;;0.77;;
33268;SDS011;19640;50.944;5.260;2023-08-21T12:27:30;3.05;;;1.08;;
33268;SDS011;19640;50.944;5.260;2023-08-21T12:29:56;2.45;;;1.17;;
33268;SDS011;19640;50.944;5.260;2023-08-21T12:32:22;1.63;;;0.77;;
33268;SDS011;19640;50.944;5.260;2023-08-21T12:34:47;2.75;;;0.98;;
33268;SDS011;19640;50.944;5.260;2023-08-21T12:37:13;2.90;;;1.00;;
33268;SDS011;19640;50.944;5.260;2023-08-21T12:39:39;5.97;;;1.15;;
33268;SDS011;19640;50.944;5.260;2023-08-21T12:42:04;3.17;;;1.05;;
33268;SDS011;19640;50.944;5.260;2023-08-21T12:44:30;2.88;;;1.00;;
33268;SDS011;19640;50.944;5.260;2023-08-21T12:46:56;2.72;;;0.90;;
33268;SDS011;19640;50.944;5.260;2023-08-21T12:49:22;6.70;;;1.05;;
33268;SDS011;19640;50.944;5.260;2023-08-21T12:51:47;2.50;;;0.70;;
33268;SDS011;19640;50.944;5.260;2023-08-21T12:54:13;2.92;;;0.85;;
33268;SDS011;19640;50.944;5.260;2023-08-21T12:56:39;7.07;;;0.60;;
33268;SDS011;19640;50.944;5.260;2023-08-21T12:59:04;3.47;;;0.73;;
33268;SDS011;19640;50.944;5.260;2023-08-21T13:01:30;3.58;;;0.82;;
33268;SDS011;19640;50.944;5.260;2023-08-21T13:03:59;2.78;;;0.80;;
33268;SDS011;19640;50.944;5.260;2023-08-21T13:06:25;6.88;;;0.90;;
33268;SDS011;19640;50.944;5.260;2023-08-21T13:08:51;6.10;;;0.90;;
33268;SDS011;19640;50.944;5.260;2023-08-21T13:11:17;6.20;;;1.00;;
33268;SDS011;19640;50.944;5.260;2023-08-21T13:13:43;3.78;;;1.25;;
33268;SDS011;19640;50.944;5.260;2023-08-21T13:16:08;3.80;;;1.25;;
33268;SDS011;19640;50.944;5.260;2023-08-21T13:18:34;3.05;;;0.98;;
33268;SDS011;19640;50.944;5.260;2023-08-21T13:21:00;6.45;;;0.98;;
33268;SDS011;19640;50.944;5.260;2023-08-21T13:23:28;3.35;;;0.98;;
33268;SDS011;19640;50.944;5.260;2023-08-21T13:25:54;2.40;;;1.05;;
33268;SDS011;19640;50.944;5.260;2023-08-21T13:28:20;2.70;;;0.80;;
33268;SDS011;19640;50.944;5.260;2023-08-21T13:30:45;3.33;;;0.90;;
33268;SDS011;19640;50.944;5.260;2023-08-21T13:33:13;2.60;;;0.90;;
33268;SDS011;19640;50.944;5.260;2023-08-21T13:35:39;4.22;;;0.88;;
33268;SDS011;19640;50.944;5.260;2023-08-21T13:38:05;2.25;;;0.90;;
33268;SDS011;19640;50.944;5.260;2023-08-21T13:40:31;3.10;;;0.80;;
33268;SDS011;19640;50.944;5.260;2023-08-21T13:42:58;2.97;;;0.80;;
33268;SDS011;19640;50.944;5.260;2023-08-21T13:45:25;2.00;;;0.70;;
33268;SDS011;19640;50.944;5.260;2023-08-21T13:47:51;2.17;;;1.00;;
33268;SDS011;19640;50.944;5.260;2023-08-21T13:50:18;2.63;;;0.90;;
33268;SDS011;19640;50.944;5.260;2023-08-21T13:52:45;3.03;;;0.80;;
33268;SDS011;19640;50.944;5.260;2023-08-21T13:55:13;3.83;;;0.75;;
33268;SDS011;19640;50.944;5.260;2023-08-21T13:57:39;2.63;;;0.82;;
33268;SDS011;19640;50.944;5.260;2023-08-21T14:00:05;1.77;;;0.80;;
33268;SDS011;19640;50.944;5.260;2023-08-21T14:02:35;4.78;;;0.90;;
33268;SDS011;19640;50.944;5.260;2023-08-21T14:05:02;1.98;;;0.70;;
33268;SDS011;19640;50.944;5.260;2023-08-21T14:07:29;3.17;;;0.85;;
33268;SDS011;19640;50.944;5.260;2023-08-21T14:09:56;2.65;;;0.90;;
33268;SDS011;19640;50.944;5.260;2023-08-21T14:12:22;1.92;;;0.70;;
33268;SDS011;19640;50.944;5.260;2023-08-21T14:14:47;2.22;;;0.80;;
33268;SDS011;19640;50.944;5.260;2023-08-21T14:17:13;3.03;;;0.90;;
33268;SDS011;19640;50.944;5.260;2023-08-21T14:19:40;1.73;;;0.70;;
33268;SDS011;19640;50.944;5.260;2023-08-21T14:22:05;2.65;;;1.48;;
33268;SDS011;19640;50.944;5.260;2023-08-21T14:24:32;4.20;;;1.10;;
33268;SDS011;19640;50.944;5.260;2023-08-21T14:26:57;3.20;;;0.70;;
33268;SDS011;19640;50.944;5.260;2023-08-21T14:29:23;2.42;;;0.90;;
33268;SDS011;19640;50.944;5.260;2023-08-21T14:31:49;4.15;;;1.13;;
33268;SDS011;19640;50.944;5.260;2023-08-21T14:34:18;1.38;;;0.80;;
33268;SDS011;19640;50.944;5.260;2023-08-21T14:36:45;1.67;;;0.75;;
33268;SDS011;19640;50.944;5.260;2023-08-21T14:39:12;2.47;;;0.70;;
33268;SDS011;19640;50.944;5.260;2023-08-21T14:41:40;3.20;;;0.95;;
33268;SDS011;19640;50.944;5.260;2023-08-21T14:44:06;2.45;;;1.15;;
33268;SDS011;19640;50.944;5.260;2023-08-21T14:46:32;2.58;;;0.82;;
33268;SDS011;19640;50.944;5.260;2023-08-21T14:48:58;2.80;;;0.90;;
33268;SDS011;19640;50.944;5.260;2023-08-21T14:51:25;2.05;;;0.70;;
33268;SDS011;19640;50.944;5.260;2023-08-21T14:53:52;7.22;;;0.88;;
33268;SDS011;19640;50.944;5.260;2023-08-21T14:56:19;2.53;;;0.65;;
33268;SDS011;19640;50.944;5.260;2023-08-21T14:58:45;2.30;;;0.80;;
33268;SDS011;19640;50.944;5.260;2023-08-21T15:01:11;1.10;;;0.70;;
33268;SDS011;19640;50.944;5.260;2023-08-21T15:03:37;2.28;;;0.75;;
33268;SDS011;19640;50.944;5.260;2023-08-21T15:06:03;2.03;;;0.80;;
33268;SDS011;19640;50.944;5.260;2023-08-21T15:08:28;2.30;;;0.80;;
33268;SDS011;19640;50.944;5.260;2023-08-21T15:10:54;3.05;;;0.80;;